createdAt,value
2022-09-14T00:00:58.495Z,40.95
2022-09-14T00:03:33.842Z,39.45
2022-09-14T00:06:05.602Z,45.45
2022-09-14T00:08:32.004Z,44.30
2022-09-14T00:10:58.211Z,59.17
2022-09-14T00:13:24.434Z,40.70
2022-09-14T00:15:52.033Z,48.35
2022-09-14T00:18:18.293Z,53.53
2022-09-14T00:20:44.454Z,56.35
2022-09-14T00:23:10.756Z,47.90
2022-09-14T00:25:37.003Z,73.82
2022-09-14T00:28:03.636Z,61.88
2022-09-14T00:30:29.937Z,70.75
2022-09-14T00:32:56.143Z,78.00
2022-09-14T00:35:22.600Z,74.43
2022-09-14T00:37:49.345Z,59.45
2022-09-14T00:40:15.704Z,56.85
2022-09-14T00:42:41.924Z,69.88
2022-09-14T00:45:14.122Z,68.82
2022-09-14T00:47:40.774Z,71.63
2022-09-14T00:50:07.298Z,90.50
2022-09-14T00:52:34.801Z,69.78
2022-09-14T00:55:06.046Z,104.60
2022-09-14T00:57:35.656Z,70.25
2022-09-14T01:00:04.542Z,84.05
2022-09-14T01:02:30.830Z,75.50
2022-09-14T01:04:57.315Z,89.97
2022-09-14T01:07:42.995Z,95.80
2022-09-14T01:10:27.890Z,87.13
2022-09-14T01:13:10.439Z,104.00
2022-09-14T01:15:55.276Z,124.32
2022-09-14T01:18:27.712Z,110.93
2022-09-14T01:21:00.899Z,125.25
2022-09-14T01:23:36.176Z,107.03
2022-09-14T01:26:21.128Z,103.25
2022-09-14T01:28:56.582Z,105.43
2022-09-14T01:31:41.616Z,94.28
2022-09-14T01:34:07.817Z,93.82
2022-09-14T01:36:35.659Z,98.25
2022-09-14T01:39:02.377Z,113.60
2022-09-14T01:41:31.280Z,99.85
2022-09-14T01:44:08.905Z,126.88
2022-09-14T01:46:39.754Z,99.18
2022-09-14T01:49:14.052Z,114.85
2022-09-14T01:51:43.112Z,127.32
2022-09-14T01:54:13.312Z,137.70
2022-09-14T01:56:42.175Z,220.27
2022-09-14T01:59:11.914Z,149.05
2022-09-14T02:01:41.146Z,128.48
2022-09-14T02:04:10.287Z,131.73
2022-09-14T02:06:41.236Z,111.78
2022-09-14T02:09:09.041Z,154.20
2022-09-14T02:11:35.451Z,89.38
2022-09-14T02:14:01.853Z,149.52
2022-09-14T02:16:28.193Z,119.50
2022-09-14T02:18:54.812Z,123.45
2022-09-14T02:21:26.211Z,86.95
2022-09-14T02:23:52.762Z,118.93
2022-09-14T02:26:19.743Z,97.72
2022-09-14T02:28:46.068Z,60.58
2022-09-14T02:31:15.761Z,57.50
2022-09-14T02:33:53.077Z,49.67
2022-09-14T02:36:23.683Z,58.25
2022-09-14T02:38:52.565Z,65.80
2022-09-14T02:41:25.194Z,58.88
2022-09-14T02:44:15.763Z,42.88
2022-09-14T02:46:42.016Z,56.35
2022-09-14T02:49:18.432Z,56.95
2022-09-14T02:51:44.621Z,41.80
2022-09-14T02:54:29.692Z,40.95
2022-09-14T02:56:59.508Z,65.18
2022-09-14T02:59:25.701Z,56.22
2022-09-14T03:01:51.988Z,64.05
2022-09-14T03:04:18.200Z,59.38
2022-09-14T03:06:44.624Z,75.75
2022-09-14T03:09:10.828Z,96.82
2022-09-14T03:11:37.031Z,69.80
2022-09-14T03:14:03.224Z,87.10
2022-09-14T03:16:29.482Z,91.55
2022-09-14T03:18:55.714Z,91.97
2022-09-14T03:21:22.388Z,82.43
2022-09-14T03:23:49.723Z,78.03
2022-09-14T03:26:17.127Z,126.68
2022-09-14T03:28:43.879Z,142.55
2022-09-14T03:31:11.316Z,110.95
2022-09-14T03:33:37.654Z,108.72
2022-09-14T03:36:14.218Z,94.20
2022-09-14T03:38:44.467Z,98.97
2022-09-14T03:41:11.338Z,70.93
2022-09-14T03:43:37.835Z,79.07
2022-09-14T03:46:23.248Z,79.20
2022-09-14T03:48:49.839Z,90.07
2022-09-14T03:51:16.370Z,71.47
2022-09-14T03:53:43.299Z,78.97
2022-09-14T03:56:15.186Z,71.95
2022-09-14T03:58:41.749Z,69.68
2022-09-14T04:01:09.487Z,77.53
2022-09-14T04:03:35.930Z,57.03
2022-09-14T04:06:05.212Z,55.58
2022-09-14T04:08:32.454Z,90.65
2022-09-14T04:10:58.640Z,73.07
2022-09-14T04:13:24.887Z,59.53
2022-09-14T04:15:58.150Z,65.65
2022-09-14T04:18:25.253Z,78.50
2022-09-14T04:20:58.140Z,81.18
2022-09-14T04:23:25.361Z,65.47
2022-09-14T04:25:52.424Z,67.68
2022-09-14T04:28:20.422Z,55.45
2022-09-14T04:31:01.012Z,77.25
2022-09-14T04:33:29.932Z,66.50
2022-09-14T04:35:57.641Z,70.05
2022-09-14T04:38:24.169Z,62.72
2022-09-14T04:40:50.357Z,83.75
2022-09-14T04:43:16.563Z,84.63
2022-09-14T04:45:42.719Z,80.93
2022-09-14T04:48:08.953Z,79.80
2022-09-14T04:50:35.169Z,69.60
2022-09-14T04:53:01.644Z,82.78
2022-09-14T04:55:27.900Z,69.47
2022-09-14T04:57:54.166Z,90.70
2022-09-14T05:00:20.826Z,104.47
2022-09-14T05:02:47.122Z,94.97
2022-09-14T05:05:13.339Z,80.03
2022-09-14T05:07:39.634Z,93.28
2022-09-14T05:10:06.133Z,79.47
2022-09-14T05:12:32.362Z,90.28
2022-09-14T05:14:58.673Z,76.70
2022-09-14T05:17:24.854Z,91.22
2022-09-14T05:19:51.128Z,84.13
2022-09-14T05:22:17.392Z,98.72
2022-09-14T05:24:43.670Z,80.38
2022-09-14T05:27:09.868Z,84.03
2022-09-14T05:29:36.085Z,99.38
2022-09-14T05:32:02.463Z,99.63
2022-09-14T05:34:28.728Z,75.90
2022-09-14T05:36:54.948Z,69.22
2022-09-14T05:39:23.391Z,60.85
2022-09-14T05:41:50.132Z,57.72
2022-09-14T05:44:17.231Z,57.85
2022-09-14T05:46:43.524Z,59.17
2022-09-14T05:49:09.742Z,55.58
2022-09-14T05:51:36.675Z,64.72
2022-09-14T05:54:09.172Z,52.53
2022-09-14T05:56:35.395Z,52.55
2022-09-14T05:59:01.699Z,59.10
2022-09-14T06:01:29.313Z,67.07
2022-09-14T06:03:56.677Z,58.92
2022-09-14T06:06:23.463Z,58.50
2022-09-14T06:08:55.004Z,55.65
2022-09-14T06:11:22.433Z,72.28
2022-09-14T06:13:49.785Z,51.45
2022-09-14T06:16:17.067Z,65.60
2022-09-14T06:18:43.805Z,75.47
2022-09-14T06:21:19.688Z,63.80
2022-09-14T06:23:46.510Z,61.10
2022-09-14T06:26:13.290Z,64.30
2022-09-14T06:28:39.649Z,70.50
2022-09-14T06:31:07.693Z,63.92
2022-09-14T06:33:34.253Z,69.88
2022-09-14T06:36:02.402Z,76.28
2022-09-14T06:38:29.119Z,79.75
2022-09-14T06:40:59.555Z,67.82
2022-09-14T06:43:30.906Z,65.15
2022-09-14T06:45:58.069Z,63.67
2022-09-14T06:48:24.608Z,81.10
2022-09-14T06:50:51.070Z,55.25
2022-09-14T06:53:17.325Z,53.55
2022-09-14T06:55:45.264Z,50.40
2022-09-14T06:58:11.573Z,31.65
2022-09-14T07:00:37.903Z,28.13
2022-09-14T07:03:04.459Z,33.20
2022-09-14T07:05:30.911Z,24.58
2022-09-14T07:07:57.469Z,22.20
2022-09-14T07:10:27.883Z,23.52
2022-09-14T07:12:54.802Z,21.58
2022-09-14T07:15:21.780Z,20.55
2022-09-14T07:17:48.040Z,23.10
2022-09-14T07:20:15.498Z,25.50
2022-09-14T07:22:41.876Z,19.75
2022-09-14T07:25:08.729Z,23.88
2022-09-14T07:27:34.970Z,23.63
2022-09-14T07:30:01.220Z,28.73
2022-09-14T07:32:27.722Z,31.45
2022-09-14T07:34:53.995Z,22.00
2022-09-14T07:37:20.220Z,22.23
2022-09-14T07:39:46.425Z,25.95
2022-09-14T07:42:12.666Z,26.27
2022-09-14T07:44:38.841Z,25.10
2022-09-14T07:47:05.045Z,24.38
2022-09-14T07:49:31.242Z,24.33
2022-09-14T07:51:57.507Z,31.23
2022-09-14T07:54:23.744Z,25.77
2022-09-14T07:56:50.499Z,23.50
2022-09-14T07:59:34.962Z,25.42
2022-09-14T08:02:02.242Z,23.95
2022-09-14T08:04:28.491Z,26.90
2022-09-14T08:06:54.895Z,31.67
2022-09-14T08:09:21.126Z,22.73
2022-09-14T08:11:48.433Z,26.73
2022-09-14T08:14:15.401Z,29.55
2022-09-14T08:16:41.864Z,24.75
2022-09-14T08:19:12.119Z,21.60
2022-09-14T08:21:41.720Z,16.55
2022-09-14T08:24:12.624Z,27.23
2022-09-14T08:26:40.659Z,21.02
2022-09-14T08:29:07.957Z,18.23
2022-09-14T08:31:38.753Z,20.60
2022-09-14T08:34:05.282Z,16.60
2022-09-14T08:36:33.208Z,21.05
2022-09-14T08:39:01.158Z,25.85
2022-09-14T08:41:45.943Z,16.15
2022-09-14T08:44:18.179Z,18.20
2022-09-14T08:46:49.557Z,21.67
2022-09-14T08:49:33.753Z,18.95
2022-09-14T08:51:59.970Z,18.73
2022-09-14T08:54:26.191Z,19.63
2022-09-14T08:56:57.051Z,14.70
2022-09-14T08:59:26.615Z,17.58
2022-09-14T09:01:57.897Z,16.55
2022-09-14T09:04:37.451Z,18.83
2022-09-14T09:07:09.706Z,20.90
2022-09-14T09:09:38.737Z,17.83
2022-09-14T09:12:05.180Z,23.83
2022-09-14T09:14:33.958Z,21.98
2022-09-14T09:17:01.613Z,22.70
2022-09-14T09:19:38.223Z,20.38
2022-09-14T09:22:06.396Z,22.83
2022-09-14T09:24:37.559Z,25.05
2022-09-14T09:27:13.799Z,28.05
2022-09-14T09:29:40.333Z,31.23
2022-09-14T09:32:08.680Z,25.30
2022-09-14T09:34:35.384Z,30.98
2022-09-14T09:37:01.723Z,32.47
2022-09-14T09:39:31.778Z,29.80
2022-09-14T09:41:57.967Z,29.73
2022-09-14T09:44:24.200Z,30.90
2022-09-14T09:46:51.082Z,29.33
2022-09-14T09:49:30.376Z,28.30
2022-09-14T09:52:05.827Z,28.60
2022-09-14T09:54:33.105Z,30.23
2022-09-14T09:57:00.842Z,29.33
2022-09-14T09:59:30.468Z,30.60
2022-09-14T10:02:13.882Z,32.72
2022-09-14T10:04:54.957Z,28.92
2022-09-14T10:07:22.145Z,33.42
2022-09-14T10:10:01.427Z,31.35
2022-09-14T10:12:28.612Z,36.17
2022-09-14T10:15:04.917Z,35.70
2022-09-14T10:17:31.357Z,34.65
2022-09-14T10:19:58.404Z,31.45
2022-09-14T10:22:35.693Z,32.13
2022-09-14T10:25:04.196Z,25.75
2022-09-14T10:27:36.996Z,20.98
2022-09-14T10:30:05.409Z,25.05
2022-09-14T10:32:33.050Z,22.30
2022-09-14T10:34:59.444Z,17.77
2022-09-14T10:37:31.974Z,19.75
2022-09-14T10:40:18.614Z,20.23
2022-09-14T10:42:50.348Z,19.15
2022-09-14T10:45:24.219Z,17.50
2022-09-14T10:48:06.222Z,18.17
2022-09-14T10:50:41.155Z,19.23
2022-09-14T10:53:19.760Z,18.75
2022-09-14T10:56:05.792Z,16.25
2022-09-14T10:58:42.022Z,18.00
2022-09-14T11:01:37.661Z,16.00
2022-09-14T11:06:41.695Z,13.05
2022-09-14T11:09:11.063Z,14.38
2022-09-14T11:11:45.689Z,19.00
2022-09-14T11:14:17.518Z,19.70
2022-09-14T11:16:47.539Z,16.92
2022-09-14T11:19:21.532Z,23.30
2022-09-14T11:22:03.344Z,17.23
2022-09-14T11:24:38.735Z,14.70
2022-09-14T11:27:09.607Z,11.98
2022-09-14T11:29:43.075Z,11.50
2022-09-14T11:32:23.617Z,16.02
2022-09-14T11:35:16.057Z,13.50
2022-09-14T11:37:48.211Z,11.82
2022-09-14T11:40:16.493Z,12.05
2022-09-14T11:42:52.077Z,17.05
2022-09-14T11:45:22.962Z,13.52
2022-09-14T11:47:55.186Z,14.23
2022-09-14T11:50:23.766Z,14.00
2022-09-14T11:52:55.658Z,15.02
2022-09-14T11:55:22.076Z,12.23
2022-09-14T11:57:48.676Z,13.45
2022-09-14T12:00:24.068Z,13.90
2022-09-14T12:03:14.067Z,14.73
2022-09-14T12:05:41.170Z,16.55
2022-09-14T12:08:26.022Z,13.15
2022-09-14T12:11:02.539Z,12.40
2022-09-14T12:13:28.782Z,14.80
2022-09-14T12:16:05.318Z,12.25
2022-09-14T12:18:32.007Z,17.63
2022-09-14T12:21:01.047Z,14.52
2022-09-14T12:23:32.081Z,13.40
2022-09-14T12:26:04.375Z,13.35
2022-09-14T12:28:39.649Z,13.15
2022-09-14T12:31:08.646Z,13.50
2022-09-14T12:33:34.909Z,11.88
2022-09-14T12:36:11.290Z,11.77
2022-09-14T12:38:37.783Z,9.90
2022-09-14T12:41:10.035Z,9.82
2022-09-14T12:43:36.213Z,12.40
2022-09-14T12:46:11.591Z,10.68
2022-09-14T12:48:47.142Z,11.07
2022-09-14T12:51:32.408Z,10.77
2022-09-14T12:56:27.883Z,12.02
2022-09-14T12:58:59.795Z,8.45
2022-09-14T13:01:48.928Z,10.65
2022-09-14T13:04:28.766Z,9.00
2022-09-14T13:06:55.912Z,10.27
2022-09-14T13:09:23.352Z,8.57
2022-09-14T13:11:54.081Z,8.73
2022-09-14T13:14:22.472Z,7.55
2022-09-14T13:16:49.910Z,8.80
2022-09-14T13:19:20.442Z,8.90
2022-09-14T13:21:50.714Z,8.65
2022-09-14T13:24:26.097Z,7.93
2022-09-14T13:26:53.392Z,7.28
2022-09-14T13:29:20.606Z,7.50
2022-09-14T13:31:46.987Z,7.72
2022-09-14T13:34:21.681Z,8.02
2022-09-14T13:36:48.122Z,8.20
2022-09-14T13:39:37.005Z,10.05
2022-09-14T13:42:03.974Z,8.63
2022-09-14T13:44:31.948Z,8.88
2022-09-14T13:46:59.148Z,8.15
2022-09-14T13:49:25.458Z,8.05
2022-09-14T13:51:51.678Z,9.10
2022-09-14T13:54:23.816Z,8.27
2022-09-14T13:57:08.805Z,9.07
2022-09-14T13:59:35.003Z,12.20
2022-09-14T14:02:03.087Z,8.57
2022-09-14T14:04:33.820Z,12.90
2022-09-14T14:07:02.282Z,10.95
2022-09-14T14:09:38.528Z,10.55
2022-09-14T14:12:04.796Z,11.52
2022-09-14T14:14:31.676Z,13.50
2022-09-14T14:17:10.385Z,11.73
2022-09-14T14:19:36.557Z,16.17
2022-09-14T14:22:32.376Z,14.73
2022-09-14T14:25:14.644Z,15.10
2022-09-14T14:27:48.072Z,18.30
2022-09-14T14:30:18.596Z,12.50
2022-09-14T14:32:49.713Z,16.00
2022-09-14T14:35:17.827Z,12.68
2022-09-14T14:37:44.082Z,14.00
2022-09-14T14:40:13.151Z,14.75
2022-09-14T14:42:39.608Z,11.60
2022-09-14T14:45:06.353Z,11.70
2022-09-14T14:47:33.300Z,14.07
2022-09-14T14:49:59.842Z,13.10
2022-09-14T14:52:26.081Z,12.23
2022-09-14T14:54:52.800Z,13.25
2022-09-14T14:57:19.017Z,14.13
2022-09-14T14:59:45.993Z,11.65
2022-09-14T15:02:12.201Z,13.68
2022-09-14T15:04:38.446Z,13.05
2022-09-14T15:07:04.665Z,15.98
2022-09-14T15:09:31.957Z,17.98
2022-09-14T15:11:58.193Z,16.67
2022-09-14T15:14:27.349Z,16.90
2022-09-14T15:16:57.633Z,17.60
2022-09-14T15:19:23.903Z,17.30
2022-09-14T15:21:50.124Z,18.75
2022-09-14T15:24:16.339Z,16.40
2022-09-14T15:26:42.604Z,17.98
2022-09-14T15:29:10.876Z,15.80
2022-09-14T15:31:37.086Z,21.35
2022-09-14T15:34:03.305Z,17.48
2022-09-14T15:36:36.462Z,17.15
2022-09-14T15:39:03.222Z,18.23
2022-09-14T15:41:29.451Z,18.02
2022-09-14T15:43:55.678Z,19.38
2022-09-14T15:46:21.906Z,19.50
2022-09-14T15:48:48.189Z,19.63
2022-09-14T15:51:14.396Z,21.73
2022-09-14T15:53:40.847Z,19.30
2022-09-14T15:56:11.019Z,22.17
2022-09-14T15:58:37.372Z,24.55
2022-09-14T16:01:10.493Z,28.55
2022-09-14T16:03:36.793Z,22.05
2022-09-14T16:06:03.506Z,25.02
2022-09-14T16:08:30.416Z,26.10
2022-09-14T16:10:57.955Z,31.67
2022-09-14T16:13:24.284Z,34.42
2022-09-14T16:15:50.470Z,31.60
2022-09-14T16:18:16.685Z,34.03
2022-09-14T16:20:42.866Z,33.65
2022-09-14T16:23:09.061Z,36.15
2022-09-14T16:25:40.587Z,39.42
2022-09-14T16:28:07.092Z,42.28
2022-09-14T16:30:33.308Z,42.17
2022-09-14T16:33:01.668Z,39.47
2022-09-14T16:35:28.058Z,34.22
2022-09-14T16:37:54.267Z,36.92
2022-09-14T16:40:20.483Z,40.33
2022-09-14T16:42:48.076Z,34.00
2022-09-14T16:45:14.395Z,34.17
2022-09-14T16:47:40.798Z,31.88
2022-09-14T16:50:07.162Z,36.15
2022-09-14T16:52:33.725Z,29.58
2022-09-14T16:54:59.923Z,33.05
2022-09-14T16:57:26.971Z,30.33
2022-09-14T16:59:54.038Z,25.88
2022-09-14T17:02:20.383Z,32.72
2022-09-14T17:04:46.582Z,25.65
2022-09-14T17:07:12.800Z,24.25
2022-09-14T17:09:40.929Z,27.95
2022-09-14T17:12:07.253Z,25.73
2022-09-14T17:14:33.879Z,24.00
2022-09-14T17:17:00.537Z,24.67
2022-09-14T17:19:26.938Z,23.27
2022-09-14T17:21:53.270Z,28.60
2022-09-14T17:24:20.234Z,28.88
2022-09-14T17:26:46.753Z,23.42
2022-09-14T17:29:12.972Z,20.70
2022-09-14T17:31:40.990Z,18.55
2022-09-14T17:34:08.263Z,23.83
2022-09-14T17:36:34.639Z,22.13
2022-09-14T17:39:09.159Z,19.27
2022-09-14T17:41:38.877Z,23.75
2022-09-14T17:44:05.638Z,19.33
2022-09-14T17:46:31.919Z,16.90
2022-09-14T17:48:59.111Z,13.80
2022-09-14T17:51:26.691Z,15.55
2022-09-14T17:53:54.008Z,16.35
2022-09-14T17:56:21.377Z,16.15
2022-09-14T17:58:48.233Z,15.98
2022-09-14T18:01:16.405Z,15.75
2022-09-14T18:03:43.627Z,17.55
2022-09-14T18:06:11.306Z,14.88
2022-09-14T18:08:38.236Z,14.88
2022-09-14T18:11:10.175Z,19.17
2022-09-14T18:13:39.604Z,16.75
2022-09-14T18:16:05.944Z,16.77
2022-09-14T18:18:32.207Z,17.83
2022-09-14T18:20:59.401Z,14.45
2022-09-14T18:23:26.153Z,16.52
2022-09-14T18:25:52.392Z,17.02
2022-09-14T18:28:18.593Z,14.38
2022-09-14T18:30:44.843Z,15.73
2022-09-14T18:33:11.075Z,15.10
2022-09-14T18:35:37.940Z,16.52
2022-09-14T18:38:05.505Z,17.90
2022-09-14T18:40:35.533Z,14.65
2022-09-14T18:43:02.401Z,16.05
2022-09-14T18:45:29.452Z,21.60
2022-09-14T18:47:55.775Z,19.05
2022-09-14T18:50:23.127Z,26.05
2022-09-14T18:52:50.419Z,21.10
2022-09-14T18:55:16.700Z,25.77
2022-09-14T18:57:47.180Z,20.25
2022-09-14T19:00:18.310Z,25.27
2022-09-14T19:02:45.790Z,24.40
2022-09-14T19:05:11.974Z,22.58
2022-09-14T19:07:38.338Z,21.92
2022-09-14T19:10:07.662Z,27.08
2022-09-14T19:12:36.041Z,26.48
2022-09-14T19:15:02.230Z,30.33
2022-09-14T19:17:28.553Z,29.58
2022-09-14T19:19:54.796Z,35.90
2022-09-14T19:22:20.992Z,29.65
2022-09-14T19:24:47.215Z,28.17
2022-09-14T19:27:13.467Z,32.97
2022-09-14T19:29:39.763Z,32.92
2022-09-14T19:32:06.269Z,34.90
2022-09-14T19:34:32.478Z,36.45
2022-09-14T19:36:58.823Z,42.22
2022-09-14T19:39:25.427Z,38.63
2022-09-14T19:41:51.694Z,40.42
2022-09-14T19:44:18.051Z,45.78
2022-09-14T19:46:44.694Z,47.33
2022-09-14T19:49:15.014Z,40.97
2022-09-14T19:51:41.256Z,43.50
2022-09-14T19:54:08.630Z,46.70
2022-09-14T19:56:35.086Z,49.80
2022-09-14T19:59:02.585Z,41.03
2022-09-14T20:01:29.857Z,53.15
2022-09-14T20:03:56.968Z,57.00
2022-09-14T20:06:29.455Z,51.13
2022-09-14T20:08:56.833Z,65.43
2022-09-14T20:11:23.749Z,48.55
2022-09-14T20:13:50.065Z,52.55
2022-09-14T20:16:23.932Z,51.58
2022-09-14T20:18:50.495Z,53.25
2022-09-14T20:21:19.182Z,48.15
2022-09-14T20:24:04.647Z,65.50
2022-09-14T20:26:31.687Z,59.83
2022-09-14T20:28:59.927Z,50.03
2022-09-14T20:31:26.556Z,59.30
2022-09-14T20:33:53.166Z,56.83
2022-09-14T20:36:20.200Z,56.30
2022-09-14T20:38:50.231Z,62.67
2022-09-14T20:41:17.879Z,69.22
2022-09-14T20:43:46.426Z,75.35
2022-09-14T20:46:14.022Z,102.38
2022-09-14T20:48:40.284Z,77.15
2022-09-14T20:51:06.936Z,85.60
2022-09-14T20:53:34.341Z,81.70
2022-09-14T20:56:04.839Z,77.63
2022-09-14T20:58:31.418Z,93.93
2022-09-14T21:01:02.081Z,93.85
2022-09-14T21:03:28.768Z,90.38
2022-09-14T21:05:55.747Z,80.13
2022-09-14T21:08:22.170Z,91.15
2022-09-14T21:10:48.535Z,85.88
2022-09-14T21:13:14.730Z,89.82
2022-09-14T21:15:41.063Z,94.55
2022-09-14T21:18:07.274Z,90.15
2022-09-14T21:20:37.053Z,97.03
2022-09-14T21:23:03.259Z,85.03
2022-09-14T21:25:29.529Z,80.05
2022-09-14T21:27:55.735Z,96.57
2022-09-14T21:30:22.287Z,86.88
2022-09-14T21:32:51.763Z,89.78
2022-09-14T21:35:18.608Z,69.25
2022-09-14T21:37:49.045Z,77.22
2022-09-14T21:40:17.009Z,71.95
2022-09-14T21:42:43.757Z,72.82
2022-09-14T21:45:10.719Z,76.50
2022-09-14T21:47:37.084Z,81.38
2022-09-14T21:50:03.552Z,93.25
2022-09-14T21:52:29.817Z,78.88
2022-09-14T21:54:56.244Z,83.25
2022-09-14T21:57:22.421Z,85.13
2022-09-14T21:59:48.631Z,82.03
2022-09-14T22:02:15.175Z,82.88
2022-09-14T22:04:41.363Z,78.03
2022-09-14T22:07:07.580Z,84.30
2022-09-14T22:09:33.774Z,84.25
2022-09-14T22:11:59.995Z,104.47
2022-09-14T22:14:27.186Z,99.03
2022-09-14T22:16:53.964Z,102.03
2022-09-14T22:19:28.055Z,100.53
2022-09-14T22:21:54.570Z,94.80
2022-09-14T22:24:22.644Z,99.22
2022-09-14T22:26:50.221Z,88.57
2022-09-14T22:29:17.075Z,102.85
2022-09-14T22:31:44.078Z,99.50
2022-09-14T22:34:10.498Z,92.25
2022-09-14T22:36:37.108Z,103.80
2022-09-14T22:39:04.298Z,95.75
2022-09-14T22:41:30.566Z,103.22
2022-09-14T22:43:57.035Z,94.55
2022-09-14T22:46:23.837Z,95.90
2022-09-14T22:48:50.880Z,92.50
2022-09-14T22:51:18.929Z,106.53
2022-09-14T22:53:45.173Z,103.07
2022-09-14T22:56:15.825Z,110.80
2022-09-14T22:58:42.361Z,98.60
2022-09-14T23:01:13.765Z,91.85
2022-09-14T23:03:40.012Z,102.25
2022-09-14T23:06:06.293Z,107.40
2022-09-14T23:08:35.149Z,106.25
2022-09-14T23:11:05.463Z,111.32
2022-09-14T23:13:34.353Z,113.50
2022-09-14T23:16:01.023Z,98.25
2022-09-14T23:18:27.776Z,99.32
2022-09-14T23:20:54.099Z,89.28
2022-09-14T23:23:20.331Z,95.22
2022-09-14T23:25:46.529Z,88.60
2022-09-14T23:28:12.785Z,88.47
2022-09-14T23:30:39.489Z,90.07
2022-09-14T23:33:05.824Z,89.30
2022-09-14T23:35:34.698Z,83.68
2022-09-14T23:38:03.842Z,90.32
2022-09-14T23:40:30.312Z,70.88
2022-09-14T23:42:56.536Z,83.85
2022-09-14T23:45:22.763Z,76.50
2022-09-14T23:47:48.979Z,79.38
2022-09-14T23:50:15.468Z,82.38
2022-09-14T23:52:41.737Z,88.95
2022-09-14T23:55:08.268Z,85.00
2022-09-14T23:57:34.582Z,87.90
